Portada
METAR-TAF:

METAR-TAF

Aeropuertos :

Chapecó, Santa Catarina, Brasil

latitud: 27-08-02S, longitud: 052-39-43W, altitud: 654 m

Observación

El informe se hizo hace 10 horas y 52 minutos, a las 15:00 UTC
Viento 8 kt del sur-sureste
Temperatura 22°C
Humedad 57%
Presión 1021 hPa
Visibilidad 10 km o más
Nubes dispersas a una altura de 2000 ft

METAR: SBCH 221500Z 16008KT 9999 SCT020 22/13 Q1021

Hora: 22:52 (01:52 UTC)


TAF: falta

Observaciones y pronósticos meteorológicos de más de 4000 aeropuertos (mensajes METAR y TAF).

Los puntos amarillos y rojos representan las estaciones disponibles.

Ponga el ratón en el punto deseado para ver el nombre de la estación.

Haga clic para ver las observaciones y los pronósticos meteorológicos.

Para cambiar el mapa : haga clic en los botones verdes con una cruz de color negro para hacer un zoom, en el botón verde con un guión para alejar o en las flechas verdes para mapas adyacentes.


METAR-TAF: